Time;durP1;ratioP1;P1;durP2;ratioP2;P2;SDS_P1;SDS_P2;PMS_P1;PMS_P2;Temp;Humidity;BMP_temperature;BMP_pressure;BME280_temperature;BME280_humidity;BME280_pressure;Samples;Min_cycle;Max_cycle;Signal;HPM_P1;HPM_P2
2024/02/05 00:01:21;;;;;;;5.75;3.40;;;;;;;;;;5036603;28;20021;-71
2024/02/05 00:03:47;;;;;;;7.65;3.25;;;;;;;;;;5041578;28;20398;-70
2024/02/05 00:06:13;;;;;;;10.38;3.40;;;;;;;;;;5042947;28;20028;-69
2024/02/05 00:08:40;;;;;;;9.57;3.38;;;;;;;;;;5055583;28;20138;-68
2024/02/05 00:11:06;;;;;;;5.85;3.05;;;;;;;;;;5024776;28;20484;-68
2024/02/05 00:13:33;;;;;;;10.65;3.47;;;;;;;;;;5036943;28;20045;-68
2024/02/05 00:15:59;;;;;;;7.80;3.33;;;;;;;;;;5027974;28;20024;-69
2024/02/05 00:18:25;;;;;;;8.70;3.08;;;;;;;;;;5039587;28;20380;-69
2024/02/05 00:20:52;;;;;;;7.35;3.22;;;;;;;;;;5024539;28;20356;-68
2024/02/05 00:23:18;;;;;;;10.27;3.42;;;;;;;;;;5034869;28;20445;-69
2024/02/05 00:25:46;;;;;;;8.48;3.08;;;;;;;;;;5027615;28;20034;-68
2024/02/05 00:28:12;;;;;;;8.45;3.35;;;;;;;;;;5030723;28;20033;-68
2024/02/05 00:30:39;;;;;;;8.95;2.60;;;;;;;;;;5040248;28;20376;-69
2024/02/05 00:33:08;;;;;;;5.10;2.85;;;;;;;;;;5043779;28;20082;-66
2024/02/05 00:35:34;;;;;;;15.70;3.30;;;;;;;;;;5030924;28;20026;-68
2024/02/05 00:38:00;;;;;;;5.40;2.72;;;;;;;;;;5036541;28;20504;-69
2024/02/05 00:40:27;;;;;;;12.43;3.38;;;;;;;;;;5037317;28;20120;-68
2024/02/05 00:42:53;;;;;;;10.63;2.72;;;;;;;;;;5025647;28;20099;-68
2024/02/05 00:45:19;;;;;;;7.90;2.80;;;;;;;;;;5029946;28;20033;-68
2024/02/05 00:47:46;;;;;;;10.63;4.43;;;;;;;;;;5041414;28;20396;-70
2024/02/05 00:50:12;;;;;;;14.63;3.17;;;;;;;;;;5023838;28;20328;-69
2024/02/05 00:52:38;;;;;;;6.15;2.75;;;;;;;;;;5032682;28;20457;-68
2024/02/05 00:55:04;;;;;;;8.80;3.15;;;;;;;;;;5047093;28;20021;-67
2024/02/05 00:57:30;;;;;;;10.05;3.70;;;;;;;;;;5035048;28;20029;-72
2024/02/05 00:59:57;;;;;;;6.88;2.85;;;;;;;;;;5012373;28;20033;-68
2024/02/05 01:02:23;;;;;;;13.63;3.20;;;;;;;;;;5033950;28;20508;-67
2024/02/05 01:04:50;;;;;;;4.03;2.60;;;;;;;;;;5039351;28;20033;-67
2024/02/05 01:07:16;;;;;;;8.90;3.20;;;;;;;;;;5038021;28;20040;-67
2024/02/05 01:09:43;;;;;;;4.85;2.55;;;;;;;;;;5040976;28;20379;-70
2024/02/05 01:12:09;;;;;;;8.43;2.88;;;;;;;;;;5042673;28;20234;-68
2024/02/05 01:14:36;;;;;;;10.52;3.50;;;;;;;;;;5030699;28;20126;-68
2024/02/05 01:17:03;;;;;;;9.07;4.03;;;;;;;;;;5043396;28;20059;-68
2024/02/05 01:19:30;;;;;;;12.18;3.80;;;;;;;;;;5048402;28;20025;-68
2024/02/05 01:21:57;;;;;;;10.75;3.28;;;;;;;;;;5039771;28;20493;-67
2024/02/05 01:24:23;;;;;;;5.53;2.78;;;;;;;;;;5039154;28;20091;-68
2024/02/05 01:26:49;;;;;;;6.65;2.90;;;;;;;;;;5028275;28;20220;-68
2024/02/05 01:29:15;;;;;;;14.23;3.33;;;;;;;;;;5030717;28;20481;-68
2024/02/05 01:31:45;;;;;;;6.63;3.72;;;;;;;;;;5038071;28;20028;-69
2024/02/05 01:34:11;;;;;;;7.07;3.10;;;;;;;;;;5053539;28;20045;-69
2024/02/05 01:36:37;;;;;;;12.18;3.35;;;;;;;;;;5034837;28;20111;-68
2024/02/05 01:39:07;;;;;;;7.55;2.95;;;;;;;;;;5044192;28;20594;-67
2024/02/05 01:41:33;;;;;;;9.95;3.58;;;;;;;;;;5046979;28;20025;-69
2024/02/05 01:44:02;;;;;;;7.45;3.83;;;;;;;;;;5032590;28;20029;-68
2024/02/05 01:46:29;;;;;;;6.90;3.28;;;;;;;;;;5047541;28;20576;-69
2024/02/05 01:49:01;;;;;;;5.95;3.28;;;;;;;;;;5046487;28;20495;-68
2024/02/05 01:51:30;;;;;;;5.32;2.50;;;;;;;;;;5042659;28;20051;-69
2024/02/05 01:53:57;;;;;;;8.07;3.30;;;;;;;;;;5041933;28;20033;-69
2024/02/05 01:56:26;;;;;;;4.78;3.13;;;;;;;;;;5041855;28;20026;-68
2024/02/05 01:58:52;;;;;;;7.07;3.22;;;;;;;;;;5035739;28;20311;-68
2024/02/05 02:01:19;;;;;;;12.30;3.03;;;;;;;;;;5031166;28;20057;-68
2024/02/05 02:03:48;;;;;;;11.30;3.50;;;;;;;;;;5027378;28;20028;-69
2024/02/05 02:06:15;;;;;;;4.30;3.28;;;;;;;;;;5016464;28;20079;-70
2024/02/05 02:08:42;;;;;;;6.45;3.08;;;;;;;;;;5040737;28;20144;-68
2024/02/05 02:11:08;;;;;;;4.60;2.83;;;;;;;;;;5032075;28;20067;-68
2024/02/05 02:13:34;;;;;;;3.63;2.55;;;;;;;;;;5036037;28;20028;-68
2024/02/05 02:16:03;;;;;;;6.38;3.10;;;;;;;;;;5041251;28;20029;-69
2024/02/05 02:18:30;;;;;;;6.25;3.33;;;;;;;;;;5018220;28;20029;-69
2024/02/05 02:20:57;;;;;;;9.40;3.38;;;;;;;;;;5037760;28;20029;-68
2024/02/05 02:23:29;;;;;;;7.85;2.80;;;;;;;;;;5027139;28;20538;-69
2024/02/05 02:25:59;;;;;;;11.15;3.10;;;;;;;;;;5033153;28;20112;-68
2024/02/05 02:28:25;;;;;;;8.48;2.70;;;;;;;;;;5036509;28;20029;-69
2024/02/05 02:30:52;;;;;;;9.27;3.42;;;;;;;;;;5038107;28;20071;-69
2024/02/05 02:33:29;;;;;;;6.68;2.55;;;;;;;;;;5044677;28;20091;-69
2024/02/05 02:35:56;;;;;;;4.45;2.28;;;;;;;;;;5028119;28;20025;-68
2024/02/05 02:38:42;;;;;;;7.70;2.78;;;;;;;;;;5026060;28;20377;-68
2024/02/05 02:41:11;;;;;;;10.40;2.70;;;;;;;;;;5017176;28;20033;-68
2024/02/05 02:43:42;;;;;;;4.95;2.90;;;;;;;;;;5043663;28;20106;-68
2024/02/05 02:46:09;;;;;;;13.32;2.80;;;;;;;;;;5040295;28;20104;-68
2024/02/05 02:48:36;;;;;;;6.35;3.08;;;;;;;;;;5038667;28;20040;-68
2024/02/05 02:51:05;;;;;;;8.35;2.85;;;;;;;;;;5038098;28;20029;-70
2024/02/05 02:53:32;;;;;;;3.53;2.80;;;;;;;;;;5044556;28;20037;-68
2024/02/05 02:55:58;;;;;;;6.18;3.05;;;;;;;;;;5033055;28;20043;-68
2024/02/05 02:58:24;;;;;;;5.22;2.90;;;;;;;;;;5043727;28;20040;-69
2024/02/05 03:00:51;;;;;;;8.20;2.75;;;;;;;;;;5038637;28;20025;-68
2024/02/05 03:03:17;;;;;;;8.90;2.83;;;;;;;;;;5044367;28;20104;-68
2024/02/05 03:05:43;;;;;;;9.38;3.30;;;;;;;;;;5043374;28;20097;-69
2024/02/05 03:08:09;;;;;;;3.75;3.20;;;;;;;;;;5058685;28;20064;-68
2024/02/05 03:10:36;;;;;;;10.85;3.13;;;;;;;;;;5037454;28;20068;-68
2024/02/05 03:13:02;;;;;;;8.52;3.47;;;;;;;;;;5048124;28;20366;-69
2024/02/05 03:15:28;;;;;;;3.45;3.15;;;;;;;;;;5038317;28;20048;-68
2024/02/05 03:17:57;;;;;;;6.88;3.55;;;;;;;;;;5037341;28;20049;-68
2024/02/05 03:20:34;;;;;;;10.05;2.72;;;;;;;;;;5059416;28;20032;-70
2024/02/05 03:23:01;;;;;;;4.82;2.88;;;;;;;;;;5046609;28;20672;-68
2024/02/05 03:25:30;;;;;;;3.58;2.40;;;;;;;;;;5041898;28;20139;-67
2024/02/05 03:27:57;;;;;;;5.25;3.10;;;;;;;;;;5047699;28;20054;-69
2024/02/05 03:30:24;;;;;;;4.18;2.42;;;;;;;;;;5044836;28;20395;-68
2024/02/05 03:32:50;;;;;;;7.15;2.70;;;;;;;;;;5048314;28;20044;-63
2024/02/05 03:35:17;;;;;;;4.97;2.58;;;;;;;;;;5049055;28;20027;-64
2024/02/05 03:37:43;;;;;;;5.50;2.50;;;;;;;;;;5058020;28;20377;-63
2024/02/05 03:40:10;;;;;;;6.22;2.55;;;;;;;;;;5035058;28;20009;-64
2024/02/05 03:42:37;;;;;;;5.47;2.15;;;;;;;;;;5044725;28;20134;-64
2024/02/05 03:45:03;;;;;;;9.55;2.83;;;;;;;;;;5034226;28;20577;-64
2024/02/05 03:47:30;;;;;;;7.35;2.50;;;;;;;;;;5037905;28;20040;-64
2024/02/05 03:49:57;;;;;;;5.68;2.60;;;;;;;;;;5035134;28;20037;-64
2024/02/05 03:52:23;;;;;;;5.10;2.58;;;;;;;;;;5029905;28;20068;-63
2024/02/05 03:54:49;;;;;;;5.43;2.90;;;;;;;;;;5033406;28;20045;-64
2024/02/05 03:57:15;;;;;;;7.00;2.45;;;;;;;;;;5019085;28;20076;-64
2024/02/05 03:59:42;;;;;;;9.65;2.90;;;;;;;;;;5048870;28;20028;-63
2024/02/05 04:02:08;;;;;;;6.43;2.55;;;;;;;;;;5029905;28;20029;-64
2024/02/05 04:04:34;;;;;;;5.50;2.80;;;;;;;;;;5043292;28;20071;-64
2024/02/05 04:07:01;;;;;;;6.63;2.88;;;;;;;;;;5027374;28;20045;-63
2024/02/05 04:09:27;;;;;;;7.82;2.85;;;;;;;;;;5040286;28;20039;-64
2024/02/05 04:11:54;;;;;;;4.05;2.88;;;;;;;;;;5042873;28;20095;-65
2024/02/05 04:14:21;;;;;;;3.55;2.25;;;;;;;;;;5030412;28;20124;-64
2024/02/05 04:16:48;;;;;;;2.50;2.30;;;;;;;;;;5038695;28;20086;-63
2024/02/05 04:19:15;;;;;;;7.40;2.50;;;;;;;;;;5040829;28;20437;-64
2024/02/05 04:21:41;;;;;;;3.95;2.10;;;;;;;;;;5043727;28;20028;-65
2024/02/05 04:24:07;;;;;;;6.75;2.15;;;;;;;;;;5037374;28;20029;-63
2024/02/05 04:26:33;;;;;;;6.63;2.50;;;;;;;;;;5016883;28;20083;-63
2024/02/05 04:29:00;;;;;;;8.15;2.58;;;;;;;;;;5020782;28;20026;-64
2024/02/05 04:31:26;;;;;;;5.00;2.42;;;;;;;;;;5047222;28;20385;-64
2024/02/05 04:33:52;;;;;;;11.40;3.30;;;;;;;;;;5036988;28;20079;-66
2024/02/05 04:36:18;;;;;;;12.32;3.03;;;;;;;;;;5019937;28;20040;-64
2024/02/05 04:38:45;;;;;;;2.90;2.45;;;;;;;;;;5052689;28;20051;-63
2024/02/05 04:41:14;;;;;;;3.00;2.53;;;;;;;;;;5041311;28;20091;-64
2024/02/05 04:43:40;;;;;;;6.15;2.38;;;;;;;;;;5010191;28;20090;-63
2024/02/05 04:46:10;;;;;;;5.03;2.95;;;;;;;;;;5037406;28;20085;-64
2024/02/05 04:48:36;;;;;;;11.50;2.63;;;;;;;;;;5024999;28;20124;-64
2024/02/05 04:51:02;;;;;;;4.47;2.33;;;;;;;;;;5041881;28;20035;-64
2024/02/05 04:53:29;;;;;;;6.20;3.05;;;;;;;;;;5042225;28;20033;-64
2024/02/05 04:55:55;;;;;;;10.27;3.72;;;;;;;;;;5028797;28;20511;-64
2024/02/05 04:58:21;;;;;;;5.78;2.72;;;;;;;;;;5039192;28;20021;-63
2024/02/05 05:00:51;;;;;;;6.50;2.38;;;;;;;;;;5049027;28;20077;-63
2024/02/05 05:03:17;;;;;;;4.20;2.95;;;;;;;;;;5017110;28;20052;-63
2024/02/05 05:05:43;;;;;;;5.07;2.20;;;;;;;;;;5044502;28;20236;-63
2024/02/05 05:08:09;;;;;;;5.68;2.17;;;;;;;;;;5040180;28;20561;-63
2024/02/05 05:10:35;;;;;;;4.78;2.55;;;;;;;;;;5027227;28;20039;-64
2024/02/05 05:13:05;;;;;;;7.53;2.97;;;;;;;;;;5040638;28;20025;-64
2024/02/05 05:15:32;;;;;;;7.43;2.67;;;;;;;;;;5035307;28;20025;-64
2024/02/05 05:17:58;;;;;;;10.50;2.65;;;;;;;;;;5049209;28;20023;-64
2024/02/05 05:20:24;;;;;;;4.25;3.13;;;;;;;;;;5047855;28;20441;-63
2024/02/05 05:22:51;;;;;;;3.03;2.47;;;;;;;;;;5034464;28;20028;-64
2024/02/05 05:25:17;;;;;;;4.68;2.85;;;;;;;;;;5037385;28;20104;-64
2024/02/05 05:27:43;;;;;;;10.40;3.05;;;;;;;;;;5052712;28;20037;-64
2024/02/05 05:30:12;;;;;;;8.35;3.28;;;;;;;;;;5039893;28;20025;-63
2024/02/05 05:32:38;;;;;;;10.32;2.35;;;;;;;;;;5032042;28;20087;-63
2024/02/05 05:35:04;;;;;;;6.88;2.83;;;;;;;;;;5034947;28;20471;-65
2024/02/05 05:37:31;;;;;;;14.63;3.30;;;;;;;;;;5052095;28;20025;-63
2024/02/05 05:39:57;;;;;;;5.72;2.42;;;;;;;;;;5052812;28;20045;-64
2024/02/05 05:42:23;;;;;;;9.70;3.28;;;;;;;;;;5042778;28;20032;-64
2024/02/05 05:44:50;;;;;;;4.25;2.65;;;;;;;;;;5055219;28;20120;-64
2024/02/05 05:47:16;;;;;;;5.60;2.90;;;;;;;;;;5031354;28;20029;-64
2024/02/05 05:49:42;;;;;;;6.05;2.97;;;;;;;;;;5034754;28;20036;-63
2024/02/05 05:52:09;;;;;;;12.52;2.65;;;;;;;;;;5022133;28;20029;-64
2024/02/05 05:54:35;;;;;;;5.13;2.65;;;;;;;;;;5037299;28;20044;-64
2024/02/05 05:57:01;;;;;;;4.72;2.72;;;;;;;;;;5038518;28;20061;-64
2024/02/05 05:59:27;;;;;;;6.63;3.30;;;;;;;;;;5042069;28;20520;-63
2024/02/05 06:01:54;;;;;;;6.60;2.88;;;;;;;;;;5029835;28;20032;-63
2024/02/05 06:04:21;;;;;;;7.13;3.10;;;;;;;;;;5048478;28;20046;-64
2024/02/05 06:06:48;;;;;;;5.53;2.67;;;;;;;;;;5028367;28;20397;-64
2024/02/05 06:09:18;;;;;;;5.85;3.35;;;;;;;;;;5024958;28;20017;-63
2024/02/05 06:11:45;;;;;;;6.45;3.13;;;;;;;;;;5046296;28;20052;-63
2024/02/05 06:14:12;;;;;;;3.75;2.17;;;;;;;;;;5039106;28;20020;-63
2024/02/05 06:16:38;;;;;;;4.95;2.30;;;;;;;;;;5046452;28;20040;-64
2024/02/05 06:19:04;;;;;;;12.77;3.00;;;;;;;;;;5026771;28;20028;-63
2024/02/05 06:21:30;;;;;;;4.47;2.70;;;;;;;;;;5034676;28;20110;-63
2024/02/05 06:23:56;;;;;;;6.43;3.03;;;;;;;;;;5025447;28;20016;-64
2024/02/05 06:26:22;;;;;;;11.70;2.50;;;;;;;;;;5028280;28;20585;-63
2024/02/05 06:28:48;;;;;;;4.82;1.88;;;;;;;;;;5045613;28;20096;-63
2024/02/05 06:31:15;;;;;;;5.03;2.08;;;;;;;;;;5027957;28;20056;-63
2024/02/05 06:33:43;;;;;;;7.53;3.30;;;;;;;;;;5037264;28;20036;-63
2024/02/05 06:36:09;;;;;;;4.43;1.90;;;;;;;;;;5051380;28;20032;-64
2024/02/05 06:38:37;;;;;;;5.13;1.67;;;;;;;;;;5025829;28;20500;-65
2024/02/05 06:41:03;;;;;;;6.13;2.22;;;;;;;;;;5045499;28;20025;-64
2024/02/05 06:43:32;;;;;;;5.93;2.13;;;;;;;;;;5046386;28;20044;-63
2024/02/05 06:45:59;;;;;;;1.85;1.67;;;;;;;;;;5021705;28;20018;-63
2024/02/05 06:48:25;;;;;;;5.38;1.75;;;;;;;;;;5040365;28;20032;-63
2024/02/05 06:50:51;;;;;;;4.07;2.00;;;;;;;;;;5034842;28;21134;-64
2024/02/05 06:53:17;;;;;;;4.75;2.97;;;;;;;;;;5027184;28;20484;-63
2024/02/05 06:55:44;;;;;;;3.00;1.98;;;;;;;;;;5022244;28;20057;-64
2024/02/05 06:58:12;;;;;;;4.28;1.60;;;;;;;;;;5040891;28;20048;-64
2024/02/05 07:00:39;;;;;;;1.67;1.45;;;;;;;;;;5048180;28;20477;-63
2024/02/05 07:03:05;;;;;;;1.50;1.40;;;;;;;;;;5038673;28;20383;-64
2024/02/05 07:05:31;;;;;;;2.28;1.92;;;;;;;;;;5029786;28;20025;-63
2024/02/05 07:07:58;;;;;;;2.03;1.60;;;;;;;;;;5046436;28;20057;-63
2024/02/05 07:10:24;;;;;;;2.03;1.42;;;;;;;;;;5038699;28;20055;-64
2024/02/05 07:12:51;;;;;;;2.47;1.50;;;;;;;;;;5048549;28;20541;-63
2024/02/05 07:15:17;;;;;;;2.55;1.70;;;;;;;;;;5047246;28;20021;-66
2024/02/05 07:17:44;;;;;;;3.67;1.50;;;;;;;;;;5039114;28;20258;-65
2024/02/05 07:20:11;;;;;;;1.85;1.38;;;;;;;;;;5025096;28;20068;-64
2024/02/05 07:22:38;;;;;;;2.45;1.60;;;;;;;;;;5046564;28;20052;-64
2024/02/05 07:25:04;;;;;;;1.63;1.52;;;;;;;;;;5026060;28;20050;-64
2024/02/05 07:27:31;;;;;;;4.78;1.60;;;;;;;;;;5037384;28;20043;-66
2024/02/05 07:29:58;;;;;;;1.30;1.30;;;;;;;;;;5042552;28;20456;-63
2024/02/05 07:32:24;;;;;;;2.35;1.60;;;;;;;;;;5031826;28;20121;-63
2024/02/05 07:34:50;;;;;;;3.13;1.55;;;;;;;;;;5046291;28;20036;-63
2024/02/05 07:37:16;;;;;;;1.30;1.20;;;;;;;;;;5035497;28;20013;-63
2024/02/05 07:39:42;;;;;;;1.77;1.58;;;;;;;;;;5023462;28;20017;-63
2024/02/05 07:42:08;;;;;;;1.60;1.50;;;;;;;;;;5036825;28;20091;-63
2024/02/05 07:44:35;;;;;;;1.83;1.67;;;;;;;;;;5036324;28;20497;-63
2024/02/05 07:47:01;;;;;;;1.80;1.65;;;;;;;;;;5021389;28;20032;-64
2024/02/05 07:49:27;;;;;;;3.33;1.70;;;;;;;;;;5037665;28;20033;-63
2024/02/05 07:51:55;;;;;;;1.25;1.15;;;;;;;;;;5041208;28;20038;-64
2024/02/05 07:54:27;;;;;;;2.75;1.38;;;;;;;;;;5034809;28;20086;-64
2024/02/05 07:56:54;;;;;;;1.20;1.20;;;;;;;;;;5043875;28;20045;-63
2024/02/05 07:59:20;;;;;;;1.10;1.10;;;;;;;;;;5041779;28;20025;-63
2024/02/05 08:01:46;;;;;;;5.18;1.83;;;;;;;;;;5026699;28;20498;-64
2024/02/05 08:04:13;;;;;;;1.45;1.38;;;;;;;;;;5041536;28;20021;-63
2024/02/05 08:06:39;;;;;;;1.73;1.30;;;;;;;;;;5022741;28;20033;-64
2024/02/05 08:09:05;;;;;;;7.82;1.50;;;;;;;;;;5031417;28;20072;-64
2024/02/05 08:11:31;;;;;;;2.70;1.55;;;;;;;;;;5030669;28;20067;-64
2024/02/05 08:13:58;;;;;;;1.60;1.50;;;;;;;;;;5037770;28;20021;-63
2024/02/05 08:16:24;;;;;;;1.20;1.08;;;;;;;;;;5030655;28;20052;-64
2024/02/05 08:18:51;;;;;;;2.38;1.30;;;;;;;;;;5041628;28;20503;-64
2024/02/05 08:21:17;;;;;;;1.42;1.05;;;;;;;;;;5030604;28;22066;-64
2024/02/05 08:23:47;;;;;;;3.00;1.52;;;;;;;;;;5022899;28;20063;-64
2024/02/05 08:26:13;;;;;;;1.25;1.23;;;;;;;;;;5034822;28;20106;-63
2024/02/05 08:28:41;;;;;;;1.60;1.50;;;;;;;;;;5023524;28;20036;-64
2024/02/05 08:31:07;;;;;;;4.57;1.30;;;;;;;;;;5038617;28;20024;-64
2024/02/05 08:33:34;;;;;;;2.30;2.10;;;;;;;;;;5048961;28;20021;-63
2024/02/05 08:36:01;;;;;;;1.60;1.40;;;;;;;;;;5021884;28;20033;-64
2024/02/05 08:38:37;;;;;;;3.78;1.80;;;;;;;;;;5040796;28;20025;-63
2024/02/05 08:41:03;;;;;;;1.40;1.30;;;;;;;;;;5039542;28;20112;-65
2024/02/05 08:43:29;;;;;;;1.80;1.45;;;;;;;;;;5023414;28;20116;-64
2024/02/05 08:45:55;;;;;;;1.40;1.30;;;;;;;;;;5035011;28;20094;-63
2024/02/05 08:48:21;;;;;;;2.97;1.52;;;;;;;;;;5026655;28;20037;-65
2024/02/05 08:50:48;;;;;;;1.70;1.60;;;;;;;;;;5041609;28;20108;-65
2024/02/05 08:53:15;;;;;;;1.33;1.33;;;;;;;;;;5021395;28;20040;-63
2024/02/05 08:55:41;;;;;;;3.63;1.35;;;;;;;;;;5043470;28;20376;-66
2024/02/05 08:58:07;;;;;;;1.50;1.40;;;;;;;;;;5030618;28;20037;-64
2024/02/05 09:00:34;;;;;;;2.67;1.30;;;;;;;;;;5022380;28;20025;-70
2024/02/05 09:03:03;;;;;;;1.27;1.27;;;;;;;;;;5040187;28;20060;-70
2024/02/05 09:05:30;;;;;;;2.15;1.55;;;;;;;;;;5025017;28;20037;-70
2024/02/05 09:07:56;;;;;;;1.42;1.33;;;;;;;;;;5022828;28;20061;-70
2024/02/05 09:10:22;;;;;;;2.88;1.48;;;;;;;;;;5011004;28;20203;-64
2024/02/05 09:12:49;;;;;;;1.10;1.10;;;;;;;;;;5037014;28;20079;-63
2024/02/05 09:15:16;;;;;;;6.10;2.08;;;;;;;;;;5019509;28;20028;-67
2024/02/05 09:17:43;;;;;;;3.50;1.50;;;;;;;;;;5020824;28;20186;-64
2024/02/05 09:20:10;;;;;;;1.50;1.40;;;;;;;;;;5020995;28;20548;-63
2024/02/05 09:22:36;;;;;;;1.88;1.48;;;;;;;;;;5038956;28;20088;-63
2024/02/05 09:25:02;;;;;;;2.53;1.58;;;;;;;;;;5038349;28;20026;-64
2024/02/05 09:27:29;;;;;;;4.07;1.35;;;;;;;;;;5028733;28;20029;-63
2024/02/05 09:29:55;;;;;;;1.73;1.33;;;;;;;;;;5040391;28;20036;-63
2024/02/05 09:32:22;;;;;;;1.10;1.10;;;;;;;;;;5043663;28;20300;-63
2024/02/05 09:34:48;;;;;;;1.50;1.40;;;;;;;;;;5038146;28;20021;-63
2024/02/05 09:37:14;;;;;;;1.42;1.33;;;;;;;;;;5034891;28;20466;-64
2024/02/05 09:39:40;;;;;;;1.38;1.30;;;;;;;;;;5036326;28;20148;-63
2024/02/05 09:42:11;;;;;;;3.35;1.30;;;;;;;;;;5031365;28;20037;-63
2024/02/05 09:44:38;;;;;;;2.38;1.58;;;;;;;;;;5022322;28;20697;-63
2024/02/05 09:47:07;;;;;;;1.30;1.25;;;;;;;;;;5037863;28;20021;-64
2024/02/05 09:49:36;;;;;;;4.45;1.80;;;;;;;;;;5031300;28;20096;-63
2024/02/05 09:52:03;;;;;;;5.18;1.60;;;;;;;;;;5040890;28;20118;-63
2024/02/05 09:54:29;;;;;;;1.48;1.42;;;;;;;;;;5036638;28;20569;-63
2024/02/05 09:56:55;;;;;;;4.30;2.05;;;;;;;;;;5039225;28;20111;-63
2024/02/05 09:59:21;;;;;;;2.03;1.80;;;;;;;;;;5033354;28;20060;-63
2024/02/05 10:01:48;;;;;;;3.53;2.33;;;;;;;;;;5040228;28;20153;-63
2024/02/05 10:04:15;;;;;;;2.67;1.42;;;;;;;;;;5040111;28;20115;-64
2024/02/05 10:06:43;;;;;;;3.53;1.40;;;;;;;;;;5042906;28;20491;-65
2024/02/05 10:09:10;;;;;;;2.47;1.70;;;;;;;;;;5038607;28;20084;-63
2024/02/05 10:11:39;;;;;;;2.08;1.52;;;;;;;;;;5018516;28;20077;-63
2024/02/05 10:14:05;;;;;;;2.55;1.65;;;;;;;;;;5044199;28;20021;-63
2024/02/05 10:16:34;;;;;;;4.40;1.80;;;;;;;;;;5039058;28;20076;-63
2024/02/05 10:19:04;;;;;;;1.52;1.42;;;;;;;;;;5035310;28;20042;-64
2024/02/05 10:21:30;;;;;;;1.80;1.70;;;;;;;;;;5039887;28;20033;-64
2024/02/05 10:23:57;;;;;;;3.65;2.03;;;;;;;;;;5033908;28;20030;-65
2024/02/05 10:26:23;;;;;;;4.07;1.90;;;;;;;;;;5039628;28;20087;-70
2024/02/05 10:28:49;;;;;;;2.58;1.63;;;;;;;;;;5036850;28;20033;-64
2024/02/05 10:31:16;;;;;;;1.98;1.45;;;;;;;;;;5040793;28;20840;-64
2024/02/05 10:33:43;;;;;;;2.17;1.73;;;;;;;;;;5033788;28;20033;-64
2024/02/05 10:36:14;;;;;;;4.35;2.30;;;;;;;;;;5044735;28;20140;-63
2024/02/05 10:38:41;;;;;;;2.38;1.88;;;;;;;;;;5047522;28;20064;-64
2024/02/05 10:41:10;;;;;;;2.40;1.75;;;;;;;;;;5041972;28;20161;-65
2024/02/05 10:43:42;;;;;;;3.17;2.25;;;;;;;;;;5045138;28;20091;-63
2024/02/05 10:46:09;;;;;;;3.78;2.20;;;;;;;;;;5048676;28;20044;-63
2024/02/05 10:48:35;;;;;;;2.50;2.00;;;;;;;;;;5048338;28;20060;-66
2024/02/05 10:51:03;;;;;;;2.10;1.90;;;;;;;;;;5042351;28;20453;-63
2024/02/05 10:53:30;;;;;;;1.90;1.60;;;;;;;;;;5036377;28;20397;-64
2024/02/05 10:56:01;;;;;;;3.28;2.10;;;;;;;;;;5036637;28;20496;-63
2024/02/05 10:58:27;;;;;;;3.75;2.33;;;;;;;;;;5022315;28;20033;-63
2024/02/05 11:00:57;;;;;;;3.22;1.80;;;;;;;;;;5043027;28;20057;-63
2024/02/05 11:03:25;;;;;;;3.90;1.83;;;;;;;;;;5031618;28;20022;-64
2024/02/05 11:05:54;;;;;;;5.57;1.70;;;;;;;;;;5034771;28;20025;-63
2024/02/05 11:08:23;;;;;;;1.98;1.88;;;;;;;;;;5036253;28;20045;-66
2024/02/05 11:10:51;;;;;;;4.35;2.47;;;;;;;;;;5041175;28;22617;-63
2024/02/05 11:13:24;;;;;;;2.33;1.80;;;;;;;;;;5034471;28;20108;-64
2024/02/05 11:15:52;;;;;;;1.80;1.70;;;;;;;;;;5023127;28;20124;-64
2024/02/05 11:18:25;;;;;;;3.53;2.28;;;;;;;;;;5004144;28;20116;-63
2024/02/05 11:20:52;;;;;;;3.95;1.80;;;;;;;;;;5043644;28;20025;-63
2024/02/05 11:23:19;;;;;;;2.63;1.80;;;;;;;;;;5045806;28;20028;-63
2024/02/05 11:25:47;;;;;;;2.53;1.67;;;;;;;;;;5017234;28;20033;-63
2024/02/05 11:28:13;;;;;;;11.50;2.22;;;;;;;;;;5044340;28;20046;-63
2024/02/05 11:30:43;;;;;;;2.58;1.73;;;;;;;;;;5040938;28;20082;-70
2024/02/05 11:33:09;;;;;;;1.75;1.60;;;;;;;;;;5048658;28;20025;-70
2024/02/05 11:35:35;;;;;;;2.50;1.90;;;;;;;;;;5046353;28;20028;-70
2024/02/05 11:38:11;;;;;;;2.72;1.85;;;;;;;;;;5037999;28;20027;-70
2024/02/05 11:40:41;;;;;;;6.72;2.10;;;;;;;;;;5037625;28;20440;-70
2024/02/05 11:43:07;;;;;;;2.38;1.90;;;;;;;;;;5030314;28;20029;-70
2024/02/05 11:45:34;;;;;;;4.85;2.00;;;;;;;;;;5034303;28;20495;-71
2024/02/05 11:48:01;;;;;;;4.40;2.30;;;;;;;;;;5052586;28;20420;-70
2024/02/05 11:50:28;;;;;;;5.22;2.42;;;;;;;;;;5031794;28;20037;-70
2024/02/05 11:52:54;;;;;;;12.85;3.15;;;;;;;;;;5037010;28;20101;-71
2024/02/05 11:55:23;;;;;;;6.15;2.63;;;;;;;;;;5034752;28;20086;-70
2024/02/05 11:57:52;;;;;;;4.72;2.67;;;;;;;;;;5042053;28;20017;-71
2024/02/05 12:00:21;;;;;;;11.13;3.10;;;;;;;;;;5047306;28;20013;-70
2024/02/05 12:02:48;;;;;;;6.97;3.08;;;;;;;;;;5047454;28;20082;-69
2024/02/05 12:05:15;;;;;;;3.80;2.75;;;;;;;;;;5028897;28;20752;-70
2024/02/05 12:07:42;;;;;;;5.53;2.83;;;;;;;;;;5032193;28;20041;-70
2024/02/05 12:10:11;;;;;;;4.15;2.33;;;;;;;;;;5033781;28;20485;-70
2024/02/05 12:12:38;;;;;;;8.82;2.85;;;;;;;;;;5043944;28;20025;-70
2024/02/05 12:15:07;;;;;;;8.02;3.00;;;;;;;;;;5037632;28;20505;-70
2024/02/05 12:17:34;;;;;;;3.17;2.50;;;;;;;;;;5033078;28;20100;-70
2024/02/05 12:20:00;;;;;;;4.93;3.45;;;;;;;;;;5041161;28;20032;-70
2024/02/05 12:22:28;;;;;;;4.35;2.58;;;;;;;;;;5035989;28;20041;-71
2024/02/05 12:24:54;;;;;;;5.35;3.28;;;;;;;;;;5029371;28;20221;-71
2024/02/05 12:27:21;;;;;;;5.13;2.67;;;;;;;;;;5041495;28;20451;-70
2024/02/05 12:29:47;;;;;;;6.18;2.75;;;;;;;;;;5026870;28;20060;-70
2024/02/05 12:32:14;;;;;;;5.80;2.75;;;;;;;;;;5033063;28;20026;-70
2024/02/05 12:34:45;;;;;;;8.98;3.95;;;;;;;;;;5034407;28;20587;-72
2024/02/05 12:37:11;;;;;;;7.80;3.05;;;;;;;;;;5017187;28;20025;-69
2024/02/05 12:39:41;;;;;;;7.63;2.25;;;;;;;;;;5024802;28;20477;-66
2024/02/05 12:42:07;;;;;;;3.20;2.67;;;;;;;;;;5035196;28;20107;-65
2024/02/05 12:44:34;;;;;;;8.73;4.68;;;;;;;;;;5013182;28;20454;-65
2024/02/05 12:47:01;;;;;;;12.18;3.70;;;;;;;;;;5034090;28;20056;-66
2024/02/05 12:49:27;;;;;;;5.43;3.03;;;;;;;;;;5046861;28;20122;-65
2024/02/05 12:51:58;;;;;;;4.45;3.17;;;;;;;;;;5039837;28;20022;-65
2024/02/05 12:54:24;;;;;;;8.63;3.17;;;;;;;;;;5024646;28;20028;-66
2024/02/05 12:56:51;;;;;;;10.27;3.03;;;;;;;;;;5047342;28;20083;-66
2024/02/05 12:59:17;;;;;;;12.25;3.63;;;;;;;;;;5031578;28;20544;-66
2024/02/05 13:01:43;;;;;;;4.13;2.35;;;;;;;;;;5043549;28;20017;-70
2024/02/05 13:04:10;;;;;;;7.15;2.63;;;;;;;;;;5044934;28;20029;-70
2024/02/05 13:06:36;;;;;;;4.22;2.67;;;;;;;;;;5018408;28;20080;-69
2024/02/05 13:09:03;;;;;;;8.07;3.17;;;;;;;;;;5039187;28;20074;-71
2024/02/05 13:11:33;;;;;;;7.03;2.95;;;;;;;;;;5040187;28;20102;-70
2024/02/05 13:14:01;;;;;;;8.70;2.88;;;;;;;;;;5034165;28;20029;-71
2024/02/05 13:16:28;;;;;;;7.88;2.65;;;;;;;;;;5043466;28;20037;-71
2024/02/05 13:18:55;;;;;;;6.45;2.58;;;;;;;;;;5026447;28;20701;-70
2024/02/05 13:21:21;;;;;;;5.47;2.60;;;;;;;;;;5028595;28;20111;-71
2024/02/05 13:23:48;;;;;;;6.97;2.67;;;;;;;;;;5027104;28;20033;-71
2024/02/05 13:26:14;;;;;;;6.50;2.60;;;;;;;;;;5028580;28;20036;-71
2024/02/05 13:28:41;;;;;;;8.10;2.75;;;;;;;;;;5034589;28;20041;-74
2024/02/05 13:31:08;;;;;;;8.15;3.33;;;;;;;;;;5041314;28;20025;-70
2024/02/05 13:33:34;;;;;;;7.47;2.88;;;;;;;;;;5037598;28;20021;-70
2024/02/05 13:36:00;;;;;;;7.40;2.70;;;;;;;;;;5029118;28;20029;-71
2024/02/05 13:38:27;;;;;;;6.25;3.17;;;;;;;;;;5024625;28;20039;-70
2024/02/05 13:40:54;;;;;;;9.07;3.83;;;;;;;;;;5044719;28;20031;-72
2024/02/05 13:43:20;;;;;;;6.78;4.18;;;;;;;;;;5044021;28;20083;-70
2024/02/05 13:45:50;;;;;;;9.90;4.20;;;;;;;;;;5037337;28;20029;-70
2024/02/05 13:48:17;;;;;;;10.75;6.15;;;;;;;;;;5044646;28;20086;-71
2024/02/05 13:50:43;;;;;;;6.43;3.28;;;;;;;;;;5029289;28;20025;-71
2024/02/05 13:53:12;;;;;;;4.65;2.70;;;;;;;;;;5031343;28;20055;-70
2024/02/05 13:55:39;;;;;;;7.55;2.78;;;;;;;;;;5037506;28;20477;-70
2024/02/05 13:58:05;;;;;;;12.32;5.15;;;;;;;;;;5046678;28;20051;-70
2024/02/05 14:00:31;;;;;;;7.40;3.95;;;;;;;;;;5044453;28;20079;-71
2024/02/05 14:02:57;;;;;;;6.97;2.90;;;;;;;;;;5046385;28;20027;-71
2024/02/05 14:05:24;;;;;;;5.95;2.92;;;;;;;;;;5035895;28;20325;-70
2024/02/05 14:07:50;;;;;;;7.97;3.42;;;;;;;;;;5037295;28;20057;-70
2024/02/05 14:10:16;;;;;;;5.40;3.17;;;;;;;;;;5034845;28;20125;-70
2024/02/05 14:12:43;;;;;;;7.68;3.40;;;;;;;;;;5050318;28;20032;-69
2024/02/05 14:15:09;;;;;;;4.15;3.22;;;;;;;;;;5038721;28;20079;-70
2024/02/05 14:17:35;;;;;;;8.35;3.70;;;;;;;;;;5045876;28;20115;-70
2024/02/05 14:20:04;;;;;;;9.95;3.08;;;;;;;;;;5026865;28;20029;-71
2024/02/05 14:22:30;;;;;;;13.38;4.05;;;;;;;;;;5041931;28;20079;-70
2024/02/05 14:24:57;;;;;;;7.75;3.25;;;;;;;;;;5047975;28;20028;-70
2024/02/05 14:27:23;;;;;;;9.63;3.15;;;;;;;;;;5043627;28;20037;-70
2024/02/05 14:29:49;;;;;;;13.02;3.42;;;;;;;;;;5028434;28;20099;-70
2024/02/05 14:32:15;;;;;;;9.73;3.00;;;;;;;;;;5033761;28;20029;-70
2024/02/05 14:34:42;;;;;;;4.30;2.88;;;;;;;;;;5023985;28;20024;-70
2024/02/05 14:37:09;;;;;;;13.40;3.60;;;;;;;;;;5040058;28;20029;-70
2024/02/05 14:39:35;;;;;;;9.13;2.95;;;;;;;;;;5037589;28;20025;-71